Time;durP1;ratioP1;P1;durP2;ratioP2;P2;SDS_P1;SDS_P2;PMS_P1;PMS_P2;Temp;Humidity;BMP_temperature;BMP_pressure;BME280_temperature;BME280_humidity;BME280_pressure;Samples;Min_cycle;Max_cycle;Signal;HPM_P1;HPM_P2
2023/04/24 00:02:06;;;;;;;3.40;1.58;;;11.10;99.90;;;;;;5067639;28;20683;-91
2023/04/24 00:04:32;;;;;;;4.10;1.60;;;11.00;99.90;;;;;;5067205;28;20028;-90
2023/04/24 00:06:59;;;;;;;3.63;1.65;;;11.00;99.90;;;;;;5083387;28;20035;-90
2023/04/24 00:09:25;;;;;;;4.57;1.90;;;10.90;99.90;;;;;;5069810;28;20594;-91
2023/04/24 00:11:52;;;;;;;4.00;1.88;;;10.90;99.90;;;;;;5069377;28;20492;-90
2023/04/24 00:14:18;;;;;;;4.55;1.90;;;10.80;99.90;;;;;;5085187;28;20040;-90
2023/04/24 00:16:43;;;;;;;4.63;1.90;;;10.80;99.90;;;;;;5084865;28;20065;-90
2023/04/24 00:19:09;;;;;;;4.05;1.75;;;10.70;99.90;;;;;;5086222;28;20058;-90
2023/04/24 00:21:34;;;;;;;4.53;2.20;;;10.70;99.90;;;;;;5083909;28;20036;-90
2023/04/24 00:24:00;;;;;;;5.70;2.20;;;10.70;99.90;;;;;;5085020;28;20050;-90
2023/04/24 00:26:26;;;;;;;5.40;2.00;;;10.60;99.90;;;;;;5061450;28;20166;-90
2023/04/24 00:28:51;;;;;;;4.25;1.67;;;10.60;99.90;;;;;;5064647;28;20448;-90
2023/04/24 00:31:17;;;;;;;4.53;1.88;;;10.60;99.90;;;;;;5084831;28;20433;-90
2023/04/24 00:33:43;;;;;;;4.55;1.92;;;10.60;99.90;;;;;;5085166;28;20032;-90
2023/04/24 00:36:09;;;;;;;6.50;2.33;;;10.50;99.90;;;;;;5067052;28;20028;-90
2023/04/24 00:38:35;;;;;;;5.65;2.47;;;10.50;99.90;;;;;;5068672;28;20051;-90
2023/04/24 00:41:00;;;;;;;5.80;2.13;;;10.50;99.90;;;;;;5084321;28;20405;-90
2023/04/24 00:43:26;;;;;;;4.72;1.60;;;10.40;99.90;;;;;;5084631;28;20034;-90
2023/04/24 00:45:51;;;;;;;1.80;1.00;;;10.30;99.90;;;;;;5083183;28;20032;-90
2023/04/24 00:48:18;;;;;;;2.20;1.10;;;10.30;99.90;;;;;;5068678;28;20035;-90
2023/04/24 00:50:43;;;;;;;2.53;1.00;;;10.30;99.90;;;;;;5067394;28;20493;-91
2023/04/24 00:53:09;;;;;;;2.30;0.95;;;10.20;99.90;;;;;;5066807;28;20038;-90
2023/04/24 00:55:37;;;;;;;2.45;1.00;;;10.20;99.90;;;;;;5065099;28;20525;-89
2023/04/24 00:58:02;;;;;;;1.83;1.00;;;10.10;99.90;;;;;;5057108;28;20075;-90
2023/04/24 01:00:30;;;;;;;2.22;1.20;;;10.10;99.90;;;;;;5057297;28;20102;-90
2023/04/24 01:02:58;;;;;;;1.77;1.17;;;10.10;99.90;;;;;;5058542;28;20035;-90
2023/04/24 01:05:24;;;;;;;3.15;1.27;;;10.10;99.90;;;;;;5058050;28;20472;-90
2023/04/24 01:07:50;;;;;;;1.95;1.08;;;10.10;99.90;;;;;;5057978;28;20040;-90
2023/04/24 01:10:17;;;;;;;2.60;1.35;;;10.00;99.90;;;;;;5074763;28;20040;-91
2023/04/24 01:12:43;;;;;;;2.75;1.30;;;10.00;99.90;;;;;;5074758;28;20075;-89
2023/04/24 01:15:09;;;;;;;2.97;1.40;;;10.00;99.90;;;;;;5074672;28;20078;-89
2023/04/24 01:17:35;;;;;;;3.25;1.63;;;10.00;99.90;;;;;;5058103;28;20070;-89
2023/04/24 01:20:04;;;;;;;3.47;1.50;;;9.90;99.90;;;;;;5057702;28;20036;-90
2023/04/24 01:22:29;;;;;;;2.05;1.27;;;9.90;99.90;;;;;;5058155;28;20139;-90
2023/04/24 01:24:55;;;;;;;4.15;1.70;;;9.90;99.90;;;;;;5074898;28;20475;-91
2023/04/24 01:27:20;;;;;;;4.03;1.70;;;9.90;99.90;;;;;;5075209;28;20557;-94
2023/04/24 01:29:49;;;;;;;1.38;0.93;;;9.90;99.90;;;;;;5057659;28;20405;-89
2023/04/24 01:32:14;;;;;;;3.35;1.50;;;9.90;99.90;;;;;;5057964;28;20032;-90
2023/04/24 01:34:40;;;;;;;3.47;1.50;;;9.90;99.90;;;;;;5057583;28;20043;-90
2023/04/24 01:37:06;;;;;;;4.93;1.95;;;9.90;99.90;;;;;;5073961;28;20131;-90
2023/04/24 01:39:33;;;;;;;5.78;2.80;;;9.80;99.90;;;;;;5056591;28;20071;-89
2023/04/24 01:42:00;;;;;;;5.38;2.10;;;9.80;99.90;;;;;;5056755;28;20485;-90
2023/04/24 01:44:26;;;;;;;3.97;2.08;;;9.80;99.90;;;;;;5057240;28;20036;-90
2023/04/24 01:46:53;;;;;;;5.80;2.33;;;9.80;99.90;;;;;;5074375;28;20047;-89
2023/04/24 01:49:19;;;;;;;7.15;2.90;;;9.80;99.90;;;;;;5056688;28;20401;-89
2023/04/24 01:51:45;;;;;;;6.28;2.75;;;9.80;99.90;;;;;;5073037;28;20040;-90
2023/04/24 01:54:11;;;;;;;6.68;2.97;;;9.70;99.90;;;;;;5056548;28;20128;-89
2023/04/24 01:56:42;;;;;;;6.88;2.83;;;9.70;99.90;;;;;;5057316;28;20047;-90
2023/04/24 01:59:10;;;;;;;8.63;3.53;;;9.80;99.90;;;;;;5074391;28;20071;-89
2023/04/24 02:01:36;;;;;;;5.88;2.65;;;9.80;99.90;;;;;;5073604;28;20579;-90
2023/04/24 02:04:03;;;;;;;7.90;4.03;;;9.70;99.90;;;;;;5073645;28;20044;-89
2023/04/24 02:06:28;;;;;;;8.60;4.00;;;9.70;99.90;;;;;;5074165;28;20489;-90
2023/04/24 02:08:54;;;;;;;7.82;3.42;;;9.70;99.90;;;;;;5057236;28;20040;-90
2023/04/24 02:11:19;;;;;;;7.68;3.45;;;9.70;99.90;;;;;;5073875;28;20523;-89
2023/04/24 02:13:45;;;;;;;7.45;3.65;;;9.70;99.90;;;;;;5057189;28;20039;-90
2023/04/24 02:16:11;;;;;;;9.98;3.47;;;9.80;99.90;;;;;;5073905;28;20113;-89
2023/04/24 02:18:36;;;;;;;8.43;4.38;;;9.80;99.90;;;;;;5073967;28;20036;-89
2023/04/24 02:21:02;;;;;;;7.82;3.65;;;9.80;99.90;;;;;;5073263;28;20040;-90
2023/04/24 02:23:28;;;;;;;6.28;2.83;;;9.90;99.90;;;;;;5073605;28;20055;-89
2023/04/24 02:25:53;;;;;;;6.97;2.85;;;9.90;99.90;;;;;;5056896;28;20040;-90
2023/04/24 02:28:19;;;;;;;7.03;3.10;;;9.90;99.90;;;;;;5073580;28;20036;-89
2023/04/24 02:30:45;;;;;;;8.13;3.50;;;9.90;99.90;;;;;;5056880;28;20044;-90
2023/04/24 02:33:11;;;;;;;7.03;3.70;;;9.90;99.90;;;;;;5056925;28;20477;-90
2023/04/24 02:35:37;;;;;;;5.82;2.58;;;9.90;99.90;;;;;;5057273;28;20032;-90
2023/04/24 02:38:03;;;;;;;6.55;3.17;;;9.90;99.90;;;;;;5057017;28;20550;-90
2023/04/24 02:40:29;;;;;;;7.40;3.58;;;9.80;99.90;;;;;;5057176;28;20043;-90
2023/04/24 02:42:55;;;;;;;6.97;3.20;;;9.80;99.90;;;;;;5056614;28;20431;-90
2023/04/24 02:45:20;;;;;;;7.40;3.42;;;9.80;99.90;;;;;;5073425;28;20122;-89
2023/04/24 02:47:46;;;;;;;7.68;3.35;;;9.80;99.90;;;;;;5055977;28;20485;-89
2023/04/24 02:50:12;;;;;;;7.65;3.55;;;9.80;99.90;;;;;;5072789;28;20392;-90
2023/04/24 02:52:37;;;;;;;8.10;3.53;;;9.80;99.90;;;;;;5056125;28;20076;-91
2023/04/24 02:55:03;;;;;;;7.10;3.20;;;9.80;99.90;;;;;;5056515;28;20042;-90
2023/04/24 02:57:29;;;;;;;6.53;3.08;;;9.80;99.90;;;;;;5056859;28;20043;-90
2023/04/24 02:59:54;;;;;;;5.95;2.30;;;9.80;99.90;;;;;;5073334;28;20105;-89
2023/04/24 03:02:20;;;;;;;7.13;3.10;;;9.80;99.90;;;;;;5072985;28;20131;-90
2023/04/24 03:04:47;;;;;;;6.78;3.22;;;9.80;99.90;;;;;;5073158;28;20374;-89
2023/04/24 03:07:14;;;;;;;5.70;2.63;;;9.80;99.90;;;;;;5077529;28;20115;-89
2023/04/24 03:09:40;;;;;;;6.60;2.85;;;9.80;99.90;;;;;;5060294;28;20040;-89
2023/04/24 03:12:06;;;;;;;8.20;3.30;;;9.70;99.90;;;;;;5077494;28;20043;-89
2023/04/24 03:14:31;;;;;;;8.20;2.80;;;9.80;99.90;;;;;;5060588;28;20036;-89
2023/04/24 03:16:57;;;;;;;8.57;4.00;;;9.80;99.90;;;;;;5077240;28;20036;-89
2023/04/24 03:19:23;;;;;;;6.82;2.72;;;9.80;99.90;;;;;;5060834;28;20039;-89
2023/04/24 03:21:49;;;;;;;6.47;2.70;;;9.70;99.90;;;;;;5076635;28;20485;-90
2023/04/24 03:24:15;;;;;;;8.18;3.80;;;9.70;99.90;;;;;;5060574;28;20047;-89
2023/04/24 03:26:40;;;;;;;6.97;3.05;;;9.70;99.90;;;;;;5076713;28;20781;-90
2023/04/24 03:29:06;;;;;;;6.78;3.03;;;9.70;99.90;;;;;;5076188;28;20047;-89
2023/04/24 03:31:31;;;;;;;7.53;3.08;;;9.70;99.90;;;;;;5059270;28;20047;-89
2023/04/24 03:33:57;;;;;;;6.85;3.08;;;9.60;99.90;;;;;;5059342;28;20036;-90
2023/04/24 03:36:23;;;;;;;8.35;3.85;;;9.60;99.90;;;;;;5060365;28;20122;-89
2023/04/24 03:38:48;;;;;;;5.43;2.42;;;9.50;99.90;;;;;;5060266;28;20101;-89
2023/04/24 03:41:14;;;;;;;7.38;3.30;;;9.60;99.90;;;;;;5059572;28;20052;-89
2023/04/24 03:43:40;;;;;;;7.45;3.50;;;9.60;99.90;;;;;;5059919;28;20040;-89
2023/04/24 03:46:05;;;;;;;8.10;4.22;;;9.50;99.90;;;;;;5060182;28;20082;-89
2023/04/24 03:48:31;;;;;;;7.05;3.65;;;9.50;99.90;;;;;;5076507;28;20028;-89
2023/04/24 03:50:56;;;;;;;7.13;3.63;;;9.50;99.90;;;;;;5059914;28;20040;-89
2023/04/24 03:53:22;;;;;;;7.85;3.33;;;9.60;99.90;;;;;;5076355;28;20546;-90
2023/04/24 03:55:48;;;;;;;9.50;4.47;;;9.60;99.90;;;;;;5076507;28;20126;-89
2023/04/24 03:58:14;;;;;;;7.70;3.42;;;9.60;99.90;;;;;;5076809;28;20069;-89
2023/04/24 04:00:40;;;;;;;8.43;4.03;;;9.60;99.90;;;;;;5058668;28;20565;-89
2023/04/24 04:03:06;;;;;;;9.27;4.22;;;9.60;99.90;;;;;;5075162;28;20123;-89
2023/04/24 04:05:31;;;;;;;8.65;4.07;;;9.60;99.90;;;;;;5075516;28;20501;-90
2023/04/24 04:07:57;;;;;;;6.18;3.10;;;9.60;99.90;;;;;;5075220;28;20036;-89
2023/04/24 04:10:23;;;;;;;7.50;3.42;;;9.50;99.90;;;;;;5075775;28;20036;-90
2023/04/24 04:12:49;;;;;;;8.98;4.30;;;9.50;99.90;;;;;;5076181;28;20607;-90
2023/04/24 04:15:14;;;;;;;8.45;3.70;;;9.50;99.90;;;;;;5059321;28;20046;-89
2023/04/24 04:17:40;;;;;;;8.25;4.43;;;9.50;99.90;;;;;;5075433;28;20052;-89
2023/04/24 04:20:09;;;;;;;8.45;4.15;;;9.60;99.90;;;;;;5075482;28;20516;-89
2023/04/24 04:22:34;;;;;;;8.13;3.97;;;9.50;99.90;;;;;;5059082;28;20496;-89
2023/04/24 04:25:00;;;;;;;8.60;4.05;;;9.50;99.90;;;;;;5058854;28;20110;-88
2023/04/24 04:27:26;;;;;;;8.25;4.32;;;9.50;99.90;;;;;;5075900;28;20405;-89
2023/04/24 04:29:52;;;;;;;9.40;4.95;;;9.50;99.90;;;;;;5075298;28;20400;-89
2023/04/24 04:32:18;;;;;;;8.50;4.22;;;9.50;99.90;;;;;;5058334;28;20044;-89
2023/04/24 04:34:45;;;;;;;8.10;3.92;;;9.50;99.90;;;;;;5057930;28;20074;-89
2023/04/24 04:37:12;;;;;;;9.18;4.10;;;9.50;99.90;;;;;;5058301;28;20820;-89
2023/04/24 04:39:38;;;;;;;10.10;4.80;;;9.50;99.90;;;;;;5074871;28;20032;-89
2023/04/24 04:42:03;;;;;;;7.93;4.10;;;9.50;99.90;;;;;;5058926;28;20459;-89
2023/04/24 04:44:30;;;;;;;8.52;4.47;;;9.50;99.90;;;;;;5058391;28;20072;-89
2023/04/24 04:46:56;;;;;;;8.00;4.00;;;9.50;99.90;;;;;;5075321;28;20036;-89
2023/04/24 04:49:23;;;;;;;8.38;4.13;;;9.50;99.90;;;;;;5075443;28;20397;-89
2023/04/24 04:51:50;;;;;;;6.72;2.97;;;9.50;99.90;;;;;;5075233;28;20058;-89
2023/04/24 04:54:16;;;;;;;9.30;4.63;;;9.50;99.90;;;;;;5075361;28;20048;-90
2023/04/24 04:56:42;;;;;;;8.57;4.35;;;9.50;99.90;;;;;;5058442;28;20104;-89
2023/04/24 04:59:07;;;;;;;8.27;4.10;;;9.50;99.90;;;;;;5058637;28;20561;-89
2023/04/24 05:01:33;;;;;;;8.70;4.13;;;9.50;99.90;;;;;;5057186;28;20056;-89
2023/04/24 05:03:58;;;;;;;8.85;3.97;;;9.50;99.90;;;;;;5057648;28;20032;-88
2023/04/24 05:06:25;;;;;;;8.80;3.75;;;9.50;99.90;;;;;;5055045;28;20094;-89
2023/04/24 05:08:51;;;;;;;9.20;3.80;;;9.60;99.90;;;;;;5056596;28;20040;-90
2023/04/24 05:11:16;;;;;;;10.00;4.15;;;9.60;99.90;;;;;;5057165;28;20035;-89
2023/04/24 05:13:42;;;;;;;9.93;3.97;;;9.60;99.90;;;;;;5073934;28;20097;-89
2023/04/24 05:16:08;;;;;;;8.90;4.70;;;9.60;99.90;;;;;;5056743;28;20050;-88
2023/04/24 05:18:33;;;;;;;10.40;4.72;;;9.60;99.90;;;;;;5074399;28;20079;-89
2023/04/24 05:20:59;;;;;;;7.82;3.85;;;9.60;99.90;;;;;;5074214;28;20446;-89
2023/04/24 05:23:25;;;;;;;7.10;3.28;;;9.60;99.90;;;;;;5057769;28;20068;-89
2023/04/24 05:25:51;;;;;;;8.73;3.67;;;9.60;99.90;;;;;;5057816;28;20093;-90
2023/04/24 05:28:16;;;;;;;6.50;2.78;;;9.60;99.90;;;;;;5073470;28;20040;-89
2023/04/24 05:30:42;;;;;;;6.80;2.70;;;9.60;99.90;;;;;;5055623;28;20473;-89
2023/04/24 05:33:08;;;;;;;5.30;2.38;;;9.60;99.90;;;;;;5056926;28;20035;-90
2023/04/24 05:35:34;;;;;;;5.80;2.28;;;9.60;99.90;;;;;;5056482;28;20054;-89
2023/04/24 05:38:00;;;;;;;5.82;2.33;;;9.60;99.90;;;;;;5057378;28;20123;-89
2023/04/24 05:40:25;;;;;;;5.80;2.25;;;9.60;99.90;;;;;;5074223;28;20087;-90
2023/04/24 05:42:51;;;;;;;6.13;2.58;;;9.60;99.90;;;;;;5074047;28;20668;-90
2023/04/24 05:45:17;;;;;;;5.20;2.13;;;9.60;99.90;;;;;;5057484;28;20077;-89
2023/04/24 05:47:43;;;;;;;6.90;2.17;;;9.60;99.90;;;;;;5057082;28;20547;-90
2023/04/24 05:50:10;;;;;;;6.90;2.60;;;9.50;99.90;;;;;;5056423;28;20036;-89
2023/04/24 05:52:35;;;;;;;6.32;2.70;;;9.50;99.90;;;;;;5073205;28;20089;-89
2023/04/24 05:55:01;;;;;;;5.30;2.20;;;9.50;99.90;;;;;;5056724;28;20043;-89
2023/04/24 05:57:27;;;;;;;5.60;2.40;;;9.60;99.90;;;;;;5073751;28;20122;-90
2023/04/24 05:59:52;;;;;;;6.05;2.05;;;9.50;99.90;;;;;;5073521;28;20092;-90
2023/04/24 06:02:18;;;;;;;5.82;2.28;;;9.50;99.90;;;;;;5073752;28;20067;-91
2023/04/24 06:04:44;;;;;;;5.03;2.00;;;9.50;99.90;;;;;;5057340;28;20475;-89
2023/04/24 06:07:11;;;;;;;6.18;2.13;;;9.50;99.90;;;;;;5055322;28;20047;-90
2023/04/24 06:09:36;;;;;;;6.97;2.70;;;9.50;99.90;;;;;;5071942;28;20043;-91
2023/04/24 06:12:02;;;;;;;4.85;2.17;;;9.50;99.90;;;;;;5057268;28;20079;-90
2023/04/24 06:14:28;;;;;;;4.50;1.65;;;9.50;99.90;;;;;;5073716;28;20119;-89
2023/04/24 06:16:54;;;;;;;5.03;1.83;;;9.50;99.90;;;;;;5057637;28;20039;-89
2023/04/24 06:19:20;;;;;;;4.13;1.70;;;9.50;99.90;;;;;;5057702;28;20119;-89
2023/04/24 06:21:45;;;;;;;4.25;1.55;;;9.50;99.90;;;;;;5071279;28;20131;-89
2023/04/24 06:24:15;;;;;;;4.75;1.85;;;9.50;99.90;;;;;;5072634;28;20401;-89
2023/04/24 06:26:41;;;;;;;5.47;1.95;;;9.40;99.90;;;;;;5055884;28;20131;-88
2023/04/24 06:29:08;;;;;;;5.35;1.70;;;9.40;99.90;;;;;;5055391;28;20136;-89
2023/04/24 06:31:36;;;;;;;5.75;1.85;;;9.40;99.90;;;;;;5055820;28;20461;-90
2023/04/24 06:34:03;;;;;;;4.57;1.83;;;9.40;99.90;;;;;;5072926;28;20047;-89
2023/04/24 06:36:30;;;;;;;4.38;1.73;;;9.30;99.90;;;;;;5073358;28;20040;-89
2023/04/24 06:38:57;;;;;;;3.83;1.40;;;9.30;99.90;;;;;;5056543;28;20058;-89
2023/04/24 06:41:22;;;;;;;4.05;1.55;;;9.30;99.90;;;;;;5058016;28;20040;-89
2023/04/24 06:43:48;;;;;;;4.75;1.95;;;9.30;99.90;;;;;;5060581;28;20109;-89
2023/04/24 06:46:14;;;;;;;3.35;1.63;;;9.30;99.90;;;;;;5059403;28;20558;-89
2023/04/24 06:48:39;;;;;;;6.93;2.08;;;9.30;99.90;;;;;;5059704;28;20024;-89
2023/04/24 06:51:05;;;;;;;3.70;1.45;;;9.30;99.90;;;;;;5059078;28;20493;-90
2023/04/24 06:53:31;;;;;;;2.75;1.23;;;9.30;99.90;;;;;;5058501;28;20560;-90
2023/04/24 06:56:17;;;;;;;3.08;1.25;;;9.30;99.90;;;;;;5055838;28;20052;-89
2023/04/24 06:58:43;;;;;;;5.35;1.67;;;9.30;99.90;;;;;;4989512;28;20152;-89
2023/04/24 07:01:09;;;;;;;4.68;1.63;;;9.20;99.90;;;;;;4977811;28;20050;-89
2023/04/24 07:03:35;;;;;;;5.97;1.45;;;9.20;99.90;;;;;;4978882;28;20100;-88
2023/04/24 07:06:01;;;;;;;4.45;1.70;;;9.20;99.90;;;;;;4995982;28;20442;-90
2023/04/24 07:08:26;;;;;;;4.70;1.65;;;9.20;99.90;;;;;;4995536;28;20038;-90
2023/04/24 07:10:52;;;;;;;4.70;1.67;;;9.20;99.90;;;;;;4985747;28;20042;-90
2023/04/24 07:13:17;;;;;;;4.25;1.63;;;9.20;99.90;;;;;;4960937;28;20494;-90
2023/04/24 07:15:43;;;;;;;4.45;1.48;;;9.20;99.90;;;;;;4976575;28;20138;-90
2023/04/24 07:18:10;;;;;;;2.33;1.08;;;9.30;99.90;;;;;;4976185;28;20042;-90
2023/04/24 07:20:35;;;;;;;1.38;0.63;;;9.30;99.90;;;;;;4959525;28;20049;-90
2023/04/24 07:23:02;;;;;;;4.60;1.20;;;9.40;99.90;;;;;;4959747;28;20058;-89
2023/04/24 07:25:27;;;;;;;6.10;1.58;;;9.50;99.90;;;;;;4975956;28;20038;-90
2023/04/24 07:27:53;;;;;;;7.25;2.00;;;9.60;99.90;;;;;;4976887;28;20085;-89
2023/04/24 07:30:19;;;;;;;6.20;1.90;;;9.60;99.90;;;;;;4976260;28;20428;-89
2023/04/24 07:32:44;;;;;;;6.22;1.83;;;9.70;99.90;;;;;;4960648;28;20054;-89
2023/04/24 07:35:10;;;;;;;7.40;2.78;;;9.70;99.90;;;;;;4979343;28;20055;-90
2023/04/24 07:37:36;;;;;;;6.53;2.22;;;9.80;99.90;;;;;;5073044;28;20466;-91
2023/04/24 07:40:02;;;;;;;7.00;2.35;;;9.80;99.90;;;;;;5059409;28;20094;-89
2023/04/24 07:42:30;;;;;;;5.63;2.13;;;9.80;99.90;;;;;;5076732;28;20100;-90
2023/04/24 07:44:55;;;;;;;6.80;1.95;;;9.90;99.90;;;;;;5076309;28;20040;-89
2023/04/24 07:47:21;;;;;;;7.00;2.05;;;9.90;99.90;;;;;;5076560;28;20048;-90
2023/04/24 07:49:47;;;;;;;6.30;2.15;;;9.90;99.90;;;;;;5059420;28;20107;-90
2023/04/24 07:52:13;;;;;;;5.75;2.30;;;10.00;99.90;;;;;;5058636;28;20071;-90
2023/04/24 07:54:38;;;;;;;6.68;2.80;;;10.00;99.90;;;;;;5075094;28;20122;-88
2023/04/24 07:57:06;;;;;;;6.93;3.00;;;10.00;99.90;;;;;;5058841;28;20088;-90
2023/04/24 07:59:31;;;;;;;7.15;2.92;;;10.00;99.90;;;;;;5074968;28;20052;-90
2023/04/24 08:01:57;;;;;;;7.32;2.42;;;10.00;99.90;;;;;;5074765;28;20122;-90
2023/04/24 08:04:23;;;;;;;7.90;3.13;;;10.00;99.90;;;;;;5057479;28;20036;-90
2023/04/24 08:06:48;;;;;;;6.25;2.42;;;10.10;99.90;;;;;;5059750;28;20040;-91
2023/04/24 08:09:14;;;;;;;7.03;2.67;;;10.10;99.90;;;;;;5076622;28;20488;-90
2023/04/24 08:11:40;;;;;;;6.70;2.63;;;10.10;99.90;;;;;;5059676;28;20497;-90
2023/04/24 08:14:05;;;;;;;7.60;2.20;;;10.10;99.90;;;;;;5059222;28;20044;-90
2023/04/24 08:16:32;;;;;;;6.68;2.60;;;10.10;99.90;;;;;;5058636;28;20135;-90
2023/04/24 08:18:58;;;;;;;6.68;2.35;;;10.10;99.90;;;;;;5058728;28;20039;-90
2023/04/24 08:21:24;;;;;;;7.30;2.67;;;10.20;99.90;;;;;;5058482;28;20036;-91
2023/04/24 08:23:50;;;;;;;7.78;2.65;;;10.20;99.90;;;;;;5059369;28;20547;-90
2023/04/24 08:26:16;;;;;;;6.28;2.10;;;10.20;99.90;;;;;;5075980;28;20036;-89
2023/04/24 08:28:42;;;;;;;5.00;1.58;;;10.20;99.90;;;;;;5058919;28;20678;-90
2023/04/24 08:31:08;;;;;;;5.47;1.70;;;10.30;99.90;;;;;;5075602;28;20040;-89
2023/04/24 08:33:36;;;;;;;5.82;1.80;;;10.30;99.90;;;;;;5058863;28;20039;-89
2023/04/24 08:36:03;;;;;;;8.05;2.22;;;10.40;99.90;;;;;;5058642;28;20044;-90
2023/04/24 08:38:29;;;;;;;5.47;1.85;;;10.40;99.90;;;;;;5058301;28;20044;-89
2023/04/24 08:40:56;;;;;;;6.25;1.92;;;10.40;99.90;;;;;;5054137;28;20078;-89
2023/04/24 08:43:22;;;;;;;5.40;1.83;;;10.50;99.90;;;;;;5065898;28;20505;-90
2023/04/24 08:45:48;;;;;;;7.30;2.03;;;10.50;99.90;;;;;;5083589;28;20092;-89
2023/04/24 08:48:15;;;;;;;6.60;2.03;;;10.50;99.90;;;;;;5075376;28;20043;-90
2023/04/24 08:50:42;;;;;;;6.80;1.70;;;10.50;99.90;;;;;;5074898;28;20383;-90
2023/04/24 08:53:08;;;;;;;7.60;2.05;;;10.60;99.90;;;;;;5058346;28;20071;-90
2023/04/24 08:55:35;;;;;;;6.90;1.98;;;10.50;99.90;;;;;;5058400;28;20040;-90
2023/04/24 08:58:02;;;;;;;8.68;3.05;;;10.50;99.90;;;;;;5075132;28;20040;-90
2023/04/24 09:00:28;;;;;;;11.82;3.90;;;10.60;99.90;;;;;;5058022;28;20040;-89
2023/04/24 09:02:54;;;;;;;10.88;4.18;;;10.50;99.90;;;;;;5058058;28;20090;-90
2023/04/24 09:05:22;;;;;;;10.45;3.70;;;10.50;99.90;;;;;;5057579;28;20039;-90
2023/04/24 09:07:54;;;;;;;10.55;4.00;;;10.50;99.90;;;;;;5057922;28;20032;-90
2023/04/24 09:10:21;;;;;;;10.20;4.57;;;10.60;99.90;;;;;;5057036;28;20039;-90
2023/04/24 09:12:47;;;;;;;9.15;4.68;;;10.60;99.90;;;;;;5057219;28;20327;-88
2023/04/24 09:15:13;;;;;;;12.05;5.50;;;10.60;99.90;;;;;;5074715;28;20044;-90
2023/04/24 09:17:38;;;;;;;15.48;5.75;;;10.60;99.90;;;;;;5074610;28;20043;-90
2023/04/24 09:20:05;;;;;;;11.85;5.65;;;10.60;99.90;;;;;;5057476;28;20036;-89
2023/04/24 09:22:31;;;;;;;13.43;6.35;;;10.60;99.90;;;;;;5057513;28;20036;-89
2023/04/24 09:25:04;;;;;;;13.77;6.28;;;10.60;99.90;;;;;;5057871;28;20051;-88
2023/04/24 09:27:30;;;;;;;14.38;6.07;;;10.70;99.90;;;;;;5057611;28;20067;-90
2023/04/24 09:29:56;;;;;;;11.85;5.70;;;10.70;99.90;;;;;;5057819;28;20128;-89
2023/04/24 09:32:25;;;;;;;12.77;6.45;;;10.70;99.90;;;;;;5057540;28;20131;-90
2023/04/24 09:35:08;;;;;;;16.13;7.38;;;10.60;99.90;;;;;;5057463;28;20178;-89
2023/04/24 09:37:41;;;;;;;16.75;8.32;;;10.50;99.90;;;;;;5062527;28;20069;-89
2023/04/24 09:40:16;;;;;;;17.58;8.52;;;10.50;99.90;;;;;;5062167;28;20065;-89
2023/04/24 09:42:56;;;;;;;16.17;8.25;;;10.50;99.90;;;;;;5072887;28;20096;-89
2023/04/24 09:45:27;;;;;;;15.23;8.88;;;10.50;99.90;;;;;;5093502;28;20051;-90
2023/04/24 09:47:55;;;;;;;18.15;9.02;;;10.40;99.90;;;;;;5076942;28;20044;-89
2023/04/24 09:50:21;;;;;;;17.08;8.30;;;10.50;99.90;;;;;;5077137;28;20031;-90
2023/04/24 09:52:58;;;;;;;16.77;8.32;;;10.50;99.90;;;;;;5089498;28;20122;-89
2023/04/24 09:55:25;;;;;;;14.60;8.68;;;10.50;99.90;;;;;;5037374;28;20040;-90
2023/04/24 09:57:56;;;;;;;14.18;7.68;;;10.40;99.90;;;;;;5054244;28;20032;-90
2023/04/24 10:00:24;;;;;;;14.15;7.43;;;10.40;99.90;;;;;;5037002;28;20574;-89
2023/04/24 10:02:51;;;;;;;16.70;7.90;;;10.40;99.90;;;;;;5035971;28;20540;-90
2023/04/24 10:05:17;;;;;;;16.15;8.00;;;10.40;99.90;;;;;;5036512;28;20033;-90
2023/04/24 10:07:43;;;;;;;15.32;7.50;;;10.30;99.90;;;;;;5036675;28;20527;-90
2023/04/24 10:10:10;;;;;;;14.52;7.07;;;10.40;99.90;;;;;;5052572;28;20044;-90
2023/04/24 10:12:36;;;;;;;16.38;7.75;;;10.40;99.90;;;;;;5037321;28;20055;-89
2023/04/24 10:15:03;;;;;;;15.68;7.32;;;10.30;99.90;;;;;;5052745;28;20041;-90
2023/04/24 10:17:29;;;;;;;15.50;7.05;;;10.20;99.90;;;;;;5053523;28;20059;-89
2023/04/24 10:19:55;;;;;;;15.10;6.90;;;10.20;99.90;;;;;;5053313;28;20044;-90
2023/04/24 10:22:22;;;;;;;15.90;7.22;;;10.10;99.90;;;;;;5036278;28;20413;-89
2023/04/24 10:24:50;;;;;;;16.25;6.35;;;10.10;99.90;;;;;;5036897;28;20037;-90
2023/04/24 10:27:16;;;;;;;14.45;5.78;;;10.10;99.90;;;;;;5036745;28;20080;-90
2023/04/24 10:29:44;;;;;;;14.13;6.45;;;10.10;99.90;;;;;;5036935;28;20047;-89
2023/04/24 10:32:09;;;;;;;12.15;5.80;;;10.10;99.90;;;;;;5036956;28;20040;-89
2023/04/24 10:34:36;;;;;;;12.95;6.07;;;10.20;99.90;;;;;;5047057;28;20038;-89
2023/04/24 10:37:02;;;;;;;14.25;5.80;;;10.20;99.90;;;;;;5055931;28;20043;-89
2023/04/24 10:39:28;;;;;;;14.00;5.78;;;10.20;99.90;;;;;;5072348;28;20040;-88
2023/04/24 10:41:57;;;;;;;13.73;5.03;;;10.20;99.90;;;;;;5055292;28;20071;-89
2023/04/24 10:44:23;;;;;;;12.55;5.57;;;10.20;99.90;;;;;;5056185;28;20706;-89
2023/04/24 10:46:54;;;;;;;9.52;4.30;;;10.20;99.90;;;;;;5055465;28;20035;-89
2023/04/24 10:49:31;;;;;;;10.32;3.88;;;10.10;99.90;;;;;;5056160;28;20036;-88
2023/04/24 10:52:01;;;;;;;10.60;4.30;;;10.10;99.90;;;;;;5073258;28;20044;-88
2023/04/24 10:54:42;;;;;;;12.93;3.67;;;10.00;99.90;;;;;;5055622;28;20039;-89
2023/04/24 10:57:28;;;;;;;7.18;2.88;;;9.80;99.90;;;;;;5064074;28;20076;-89
2023/04/24 11:00:14;;;;;;;12.35;3.92;;;9.70;99.90;;;;;;5069533;28;20036;-90
2023/04/24 11:02:43;;;;;;;8.73;3.20;;;9.70;99.90;;;;;;5063899;28;20031;-90
2023/04/24 11:05:10;;;;;;;9.45;3.17;;;9.70;99.90;;;;;;5081595;28;20063;-89
2023/04/24 11:08:11;;;;;;;9.00;2.80;;;9.70;99.90;;;;;;5083530;28;20065;-89
2023/04/24 11:10:44;;;;;;;10.35;3.00;;;9.70;99.90;;;;;;5063389;28;20067;-89
2023/04/24 11:13:10;;;;;;;8.90;3.55;;;9.70;99.90;;;;;;5066944;28;20050;-89
2023/04/24 11:15:35;;;;;;;10.93;3.05;;;9.70;99.90;;;;;;5081898;28;20039;-90
2023/04/24 11:18:01;;;;;;;10.75;3.10;;;9.70;99.90;;;;;;5065624;28;20044;-89
2023/04/24 11:20:27;;;;;;;9.50;2.65;;;9.80;99.90;;;;;;5065383;28;20044;-90
2023/04/24 11:22:55;;;;;;;13.05;2.75;;;9.80;99.90;;;;;;5063147;28;20447;-89
2023/04/24 11:25:24;;;;;;;8.50;2.28;;;9.80;99.90;;;;;;5066073;28;20089;-90
2023/04/24 11:28:02;;;;;;;8.18;2.40;;;9.80;99.90;;;;;;5070347;28;20038;-89
2023/04/24 11:30:29;;;;;;;8.27;1.90;;;9.80;99.90;;;;;;5081595;28;20043;-89
2023/04/24 11:33:04;;;;;;;11.15;2.38;;;9.70;99.90;;;;;;5082609;28;20127;-89
2023/04/24 11:35:37;;;;;;;10.20;2.85;;;9.70;99.90;;;;;;5084937;28;20044;-89
2023/04/24 11:38:04;;;;;;;8.90;2.15;;;9.70;99.90;;;;;;5068903;28;20028;-90
2023/04/24 11:40:29;;;;;;;7.57;2.00;;;9.70;99.90;;;;;;5084640;28;20047;-89
2023/04/24 11:42:55;;;;;;;8.18;2.28;;;9.70;99.90;;;;;;5087318;28;20035;-89
2023/04/24 11:45:26;;;;;;;7.55;2.38;;;9.70;99.90;;;;;;5067622;28;20098;-90
2023/04/24 11:47:52;;;;;;;8.80;2.10;;;9.80;99.90;;;;;;5084098;28;20052;-90
2023/04/24 11:50:21;;;;;;;8.43;2.22;;;9.80;99.90;;;;;;5067454;28;20474;-90
2023/04/24 11:52:49;;;;;;;11.82;2.72;;;9.80;99.90;;;;;;5086160;28;20035;-90
2023/04/24 11:55:15;;;;;;;9.60;2.72;;;9.80;99.90;;;;;;5086721;28;20040;-90
2023/04/24 11:57:47;;;;;;;11.75;2.10;;;9.80;99.90;;;;;;5087056;28;20039;-90
2023/04/24 12:00:21;;;;;;;6.70;1.90;;;9.90;99.90;;;;;;5085762;28;20040;-90
2023/04/24 12:02:48;;;;;;;8.38;1.80;;;9.90;99.90;;;;;;5063088;28;20047;-91
2023/04/24 12:05:25;;;;;;;7.80;2.22;;;9.90;99.90;;;;;;5059132;28;20039;-90
2023/04/24 12:07:52;;;;;;;8.25;1.92;;;9.90;99.90;;;;;;5076028;28;20071;-89
2023/04/24 12:10:27;;;;;;;9.40;2.42;;;10.00;99.90;;;;;;5075657;28;20044;-90
2023/04/24 12:12:53;;;;;;;4.65;1.27;;;10.00;99.90;;;;;;5075666;28;20509;-90
2023/04/24 12:15:20;;;;;;;7.80;1.75;;;10.00;99.90;;;;;;5076053;28;20036;-90
2023/04/24 12:17:46;;;;;;;9.27;1.80;;;10.00;99.90;;;;;;5059232;28;20501;-90
2023/04/24 12:20:13;;;;;;;12.68;1.95;;;10.00;99.90;;;;;;5076170;28;20084;-90
2023/04/24 12:22:46;;;;;;;8.68;1.55;;;9.90;99.90;;;;;;5059107;28;20036;-90
2023/04/24 12:25:12;;;;;;;4.78;1.00;;;9.90;99.90;;;;;;5058935;28;20150;-90
2023/04/24 12:27:37;;;;;;;9.13;1.73;;;9.90;99.90;;;;;;5075769;28;20093;-90
2023/04/24 12:30:05;;;;;;;6.13;1.85;;;9.90;99.90;;;;;;5058561;28;20199;-90
2023/04/24 12:32:31;;;;;;;6.72;1.83;;;9.90;99.90;;;;;;5059181;28;20032;-90
2023/04/24 12:34:57;;;;;;;9.18;1.77;;;9.80;99.90;;;;;;5075249;28;20040;-90
2023/04/24 12:37:25;;;;;;;7.45;1.45;;;9.80;99.90;;;;;;5059278;28;20036;-89
2023/04/24 12:40:07;;;;;;;5.78;1.75;;;9.80;99.90;;;;;;5057654;28;20089;-89
2023/04/24 12:42:34;;;;;;;7.10;1.52;;;9.80;99.90;;;;;;5058650;28;20032;-89
2023/04/24 12:45:05;;;;;;;6.68;2.05;;;9.80;99.90;;;;;;5058683;28;20461;-90
2023/04/24 12:47:32;;;;;;;9.35;2.33;;;9.80;99.90;;;;;;5058454;28;20098;-90
2023/04/24 12:49:58;;;;;;;6.75;1.73;;;9.80;99.90;;;;;;5057883;28;20627;-89